Startpagina
METAR-TAF:

METAR-TAF

Vliegvelden :

Batna, Algerije

breedte: 35-33N, lengte: 006-11E, hoogte: 1052 m

Actueel weer

Dit bericht is 36 minuten geleden gemaakt, om 13:00 UTC
Wind 2 kt uit het westen
Temperatuur 19°C
Vochtigheid 26%
Druk 1020 hPa
Zicht: 8000 m

METAR: DABT 231300Z 27002KT 8000 NSC 19/M01 Q1020

Tijdstip: 14:36 (13:36 UTC)

Verwachting

Dit bericht is 2 uur en het 36 minuten geleden gemaakt, om 11:00 UTC
Verwachting geldig van 23 om 12 UTC tot 24 om 12 UTC
Wind 13 kt uit het zuidzuidoosten
Zicht 10 km of meer
Weinig wolken op 3000 ft
Kans 30% :
Tijdelijke
van 23 om 12 UTC tot 23 om 18 UTC
Wind 15 kt uit het zuidzuidoosten met uitschieters tot 25 kt
Wijzigt naar
van 23 om 20 UTC tot 23 om 22 UTC
Wind 8 kt uit het noordwesten
Kans 30% :
Tijdelijke
van 24 om 00 UTC tot 24 om 06 UTC
Zicht: 2000 m
nevel

TAF: DABT 231100Z 2312/2412 15013KT 9999 FEW030 PROB30 TEMPO 2312/2318 16015G25KT BECMG 2320/2322 32008KT PROB30 TEMPO 2400/2406 2000 BR BKN0010

Waarnemingen en weersverwachtingen van meer dan 4000 vliegvelden (METAR en TAF).

De beschikbare stations zijn de gele en rode punten op de kaart.

Ga met uw muis naar het station om de naam te zien.

Klik dan om waarnemingen en weersverwachtingen te zien.

kaart wijzigen: klik op de groene knoppen met een zwart kruis om in te zoomen, op de groene knop met een streepje om uit te zoomen of op de groene pijlen voor aangrenzende kaarten.


METAR-TAF: